Time;durP1;ratioP1;P1;durP2;ratioP2;P2;SDS_P1;SDS_P2;PMS_P1;PMS_P2;Temp;Humidity;BMP_temperature;BMP_pressure;BME280_temperature;BME280_humidity;BME280_pressure;Samples;Min_cycle;Max_cycle;Signal;HPM_P1;HPM_P2
2021/04/21 00:01:51;;;;;;;22.40;13.48;;;5.40;99.90;;;;;;483994;245;27493;-74
2021/04/21 00:03:52;;;;;;;18.27;12.00;;;5.40;99.90;;;;;;484025;245;27414;-73
2021/04/21 00:05:53;;;;;;;18.85;12.50;;;5.40;99.90;;;;;;484021;245;27371;-73
2021/04/21 00:07:55;;;;;;;16.75;11.98;;;5.40;99.90;;;;;;483993;245;27885;-74
2021/04/21 00:09:56;;;;;;;15.45;11.30;;;5.40;99.90;;;;;;483934;245;27834;-73
2021/04/21 00:11:57;;;;;;;16.80;10.98;;;5.30;99.90;;;;;;483937;245;27442;-73
2021/04/21 00:13:59;;;;;;;16.27;11.05;;;5.30;99.90;;;;;;483576;246;27604;-73
2021/04/21 00:16:00;;;;;;;13.90;10.70;;;5.30;99.90;;;;;;483896;245;27370;-73
2021/04/21 00:18:02;;;;;;;14.35;10.65;;;5.20;99.90;;;;;;483937;245;27946;-74
2021/04/21 00:20:02;;;;;;;17.02;10.65;;;5.30;99.90;;;;;;483915;245;27825;-72
2021/04/21 00:22:04;;;;;;;13.73;9.50;;;5.30;99.90;;;;;;483920;245;27501;-73
2021/04/21 00:24:05;;;;;;;11.10;8.55;;;5.30;99.90;;;;;;483960;245;27494;-73
2021/04/21 00:26:06;;;;;;;12.88;9.35;;;5.20;99.90;;;;;;484005;245;27449;-73
2021/04/21 00:28:08;;;;;;;13.85;9.73;;;5.20;99.90;;;;;;484032;245;27382;-73
2021/04/21 00:30:09;;;;;;;14.60;9.45;;;5.20;99.90;;;;;;484007;246;27941;-72
2021/04/21 00:32:10;;;;;;;13.35;10.50;;;5.20;99.90;;;;;;484019;245;27371;-74
2021/04/21 00:34:11;;;;;;;13.80;11.23;;;5.20;99.90;;;;;;484034;245;27411;-73
2021/04/21 00:36:12;;;;;;;13.95;10.45;;;5.10;99.90;;;;;;484018;245;27451;-73
2021/04/21 00:38:14;;;;;;;16.98;12.15;;;5.00;99.90;;;;;;484022;245;27398;-74
2021/04/21 00:40:15;;;;;;;20.85;12.25;;;5.10;99.90;;;;;;484018;244;28028;-73
2021/04/21 00:42:16;;;;;;;13.73;10.40;;;5.00;99.90;;;;;;483917;245;27876;-73
2021/04/21 00:44:17;;;;;;;14.20;10.05;;;5.00;99.90;;;;;;483936;245;27414;-73
2021/04/21 00:46:19;;;;;;;15.30;10.48;;;5.00;99.90;;;;;;483865;245;27371;-73
2021/04/21 00:48:20;;;;;;;14.43;11.05;;;5.00;99.90;;;;;;483762;245;27431;-73
2021/04/21 00:50:21;;;;;;;15.27;10.27;;;5.00;99.90;;;;;;483930;245;27965;-73
2021/04/21 00:52:22;;;;;;;15.05;10.30;;;5.00;99.90;;;;;;483928;246;27864;-73
2021/04/21 00:54:24;;;;;;;11.60;9.93;;;5.00;99.90;;;;;;483951;245;27398;-73
2021/04/21 00:56:25;;;;;;;12.27;9.80;;;5.00;99.90;;;;;;483944;245;27363;-75
2021/04/21 00:58:26;;;;;;;13.75;10.30;;;5.10;99.90;;;;;;483900;245;27406;-73
2021/04/21 01:00:28;;;;;;;11.35;9.13;;;5.10;99.90;;;;;;483911;245;27449;-73
2021/04/21 01:02:29;;;;;;;10.75;8.73;;;5.10;99.90;;;;;;483890;246;27978;-73
2021/04/21 01:04:30;;;;;;;14.02;10.18;;;5.00;99.90;;;;;;483928;245;27478;-73
2021/04/21 01:06:31;;;;;;;11.85;9.48;;;5.10;99.90;;;;;;483999;245;27402;-73
2021/04/21 01:08:33;;;;;;;13.95;9.82;;;5.00;99.90;;;;;;483964;245;27482;-73
2021/04/21 01:10:34;;;;;;;16.23;9.75;;;5.00;99.90;;;;;;483964;245;27391;-74
2021/04/21 01:12:35;;;;;;;11.98;9.60;;;4.90;99.90;;;;;;483895;245;27522;-73
2021/04/21 01:14:36;;;;;;;14.18;10.40;;;4.90;99.90;;;;;;483903;245;27950;-72
2021/04/21 01:16:38;;;;;;;13.77;10.45;;;4.90;99.90;;;;;;483928;245;27373;-73
2021/04/21 01:18:39;;;;;;;12.70;10.15;;;4.90;99.90;;;;;;483965;245;27372;-73
2021/04/21 01:20:40;;;;;;;11.90;9.15;;;4.90;99.90;;;;;;483918;245;27359;-73
2021/04/21 01:22:41;;;;;;;14.13;10.60;;;4.90;99.90;;;;;;483990;245;27426;-73
2021/04/21 01:24:43;;;;;;;15.43;11.60;;;4.80;99.90;;;;;;483968;245;27523;-73
2021/04/21 01:26:44;;;;;;;15.30;11.55;;;4.80;99.90;;;;;;483961;245;27832;-73
2021/04/21 01:28:45;;;;;;;17.23;11.80;;;4.80;99.90;;;;;;483947;245;27528;-74
2021/04/21 01:30:46;;;;;;;14.07;10.38;;;4.80;99.90;;;;;;483909;245;27450;-73
2021/04/21 01:32:48;;;;;;;19.00;12.93;;;4.70;99.90;;;;;;483897;245;27391;-73
2021/04/21 01:34:49;;;;;;;15.85;11.90;;;4.70;99.90;;;;;;483941;246;27513;-73
2021/04/21 01:36:50;;;;;;;18.60;13.30;;;4.70;99.90;;;;;;483907;245;27951;-73
2021/04/21 01:38:52;;;;;;;19.05;14.20;;;4.70;99.90;;;;;;483904;245;27435;-73
2021/04/21 01:40:53;;;;;;;16.35;12.93;;;4.70;99.90;;;;;;483912;245;27375;-73
2021/04/21 01:42:54;;;;;;;17.80;12.73;;;4.70;99.90;;;;;;483882;245;27482;-73
2021/04/21 01:44:55;;;;;;;17.58;12.98;;;4.70;99.90;;;;;;483910;245;27537;-73
2021/04/21 01:46:57;;;;;;;18.87;12.23;;;4.70;99.90;;;;;;483941;245;27892;-73
2021/04/21 01:48:58;;;;;;;17.33;12.70;;;4.70;99.90;;;;;;483997;245;28000;-73
2021/04/21 01:50:59;;;;;;;19.35;12.63;;;4.70;99.90;;;;;;484009;245;27360;-73
2021/04/21 01:53:00;;;;;;;20.80;14.00;;;4.60;99.90;;;;;;483941;245;27490;-73
2021/04/21 01:55:02;;;;;;;19.25;13.93;;;4.60;99.90;;;;;;483965;245;27417;-73
2021/04/21 01:57:03;;;;;;;19.73;14.98;;;4.60;99.90;;;;;;483900;245;27366;-73
2021/04/21 01:59:04;;;;;;;19.33;13.48;;;4.60;99.90;;;;;;483923;245;27965;-73
2021/04/21 02:01:05;;;;;;;21.80;13.23;;;4.60;99.90;;;;;;484005;245;27822;-73
2021/04/21 02:03:07;;;;;;;15.40;11.57;;;4.50;99.90;;;;;;483900;246;27504;-73
2021/04/21 02:05:08;;;;;;;22.62;15.02;;;4.60;99.90;;;;;;483919;245;27396;-73
2021/04/21 02:07:09;;;;;;;21.08;13.65;;;4.50;99.90;;;;;;483900;245;27367;-73
2021/04/21 02:09:11;;;;;;;18.87;13.32;;;4.40;99.90;;;;;;483910;245;27510;-73
2021/04/21 02:11:12;;;;;;;19.00;13.48;;;4.40;99.90;;;;;;483954;245;27909;-73
2021/04/21 02:13:13;;;;;;;18.80;13.30;;;4.40;99.90;;;;;;483984;245;27393;-73
2021/04/21 02:15:17;;;;;;;16.75;11.90;;;4.40;99.90;;;;;;483994;245;27406;-74
2021/04/21 02:17:15;;;;;;;18.23;13.80;;;4.30;99.90;;;;;;483803;245;27367;-72
2021/04/21 02:19:17;;;;;;;22.75;15.02;;;4.30;99.90;;;;;;483901;245;27415;-73
2021/04/21 02:21:18;;;;;;;19.50;13.18;;;4.30;99.90;;;;;;483923;246;27852;-73
2021/04/21 02:23:19;;;;;;;14.55;11.80;;;4.30;99.90;;;;;;483905;245;27835;-73
2021/04/21 02:25:21;;;;;;;15.13;11.98;;;4.20;99.90;;;;;;483921;245;27487;-73
2021/04/21 02:27:22;;;;;;;19.60;13.15;;;4.20;99.90;;;;;;483904;246;27506;-73
2021/04/21 02:29:23;;;;;;;15.88;12.63;;;4.20;99.90;;;;;;483931;245;27510;-73
2021/04/21 02:31:24;;;;;;;15.65;11.75;;;4.20;99.90;;;;;;483898;246;27399;-73
2021/04/21 02:33:26;;;;;;;18.42;11.70;;;4.20;99.90;;;;;;483935;245;27907;-73
2021/04/21 02:35:27;;;;;;;18.02;13.52;;;4.20;99.90;;;;;;483969;245;27422;-73
2021/04/21 02:37:28;;;;;;;18.00;12.68;;;4.20;99.90;;;;;;483902;245;27383;-73
2021/04/21 02:39:29;;;;;;;17.70;12.65;;;4.20;99.90;;;;;;483879;245;27415;-73
2021/04/21 02:41:31;;;;;;;17.62;13.48;;;4.20;99.90;;;;;;483913;245;27458;-73
2021/04/21 02:43:32;;;;;;;16.08;12.73;;;4.20;99.90;;;;;;483878;245;27415;-73
2021/04/21 02:45:33;;;;;;;17.33;13.18;;;4.20;99.90;;;;;;483895;245;27883;-74
2021/04/21 02:47:34;;;;;;;15.63;12.48;;;4.20;99.90;;;;;;483905;245;27871;-73
2021/04/21 02:49:36;;;;;;;18.48;13.40;;;4.20;99.90;;;;;;483904;245;27433;-73
2021/04/21 02:51:37;;;;;;;16.45;12.32;;;4.20;99.90;;;;;;483893;246;27510;-73
2021/04/21 02:53:38;;;;;;;17.52;12.82;;;4.20;99.90;;;;;;483860;245;27379;-73
2021/04/21 02:55:39;;;;;;;17.62;13.62;;;4.20;99.90;;;;;;483883;245;27419;-73
2021/04/21 02:57:41;;;;;;;19.23;13.32;;;4.20;99.90;;;;;;483903;245;27843;-73
2021/04/21 02:59:42;;;;;;;17.08;12.77;;;4.10;99.90;;;;;;483936;245;27909;-73
2021/04/21 03:01:43;;;;;;;14.98;12.02;;;4.10;99.90;;;;;;483923;245;27375;-73
2021/04/21 03:03:44;;;;;;;21.90;14.15;;;4.10;99.90;;;;;;483641;245;27399;-73
2021/04/21 03:05:46;;;;;;;24.70;14.63;;;4.20;99.90;;;;;;483866;245;27419;-73
2021/04/21 03:07:47;;;;;;;19.83;13.73;;;4.10;99.90;;;;;;483910;245;27378;-73
2021/04/21 03:09:48;;;;;;;16.77;12.30;;;4.10;99.90;;;;;;483914;245;27892;-73
2021/04/21 03:11:50;;;;;;;17.35;13.10;;;4.10;99.90;;;;;;483887;246;27824;-73
2021/04/21 03:13:51;;;;;;;19.33;14.20;;;4.10;99.90;;;;;;483865;245;27399;-73
2021/04/21 03:15:52;;;;;;;19.90;14.27;;;4.20;99.90;;;;;;483928;245;27419;-73
2021/04/21 03:17:53;;;;;;;20.08;12.60;;;4.20;99.90;;;;;;483890;245;27375;-73
2021/04/21 03:19:55;;;;;;;20.35;13.90;;;4.20;99.90;;;;;;483897;245;27482;-73
2021/04/21 03:21:56;;;;;;;16.65;12.77;;;4.30;99.90;;;;;;483916;245;27806;-73
2021/04/21 03:23:57;;;;;;;20.35;14.75;;;4.20;99.90;;;;;;483915;245;27989;-72
2021/04/21 03:25:58;;;;;;;23.60;16.42;;;4.20;99.90;;;;;;483910;245;27443;-73
2021/04/21 03:28:00;;;;;;;20.33;14.82;;;4.10;99.90;;;;;;483912;246;27355;-73
2021/04/21 03:30:01;;;;;;;19.62;15.00;;;4.10;99.90;;;;;;483919;246;27466;-73
2021/04/21 03:32:02;;;;;;;19.17;13.75;;;4.10;99.90;;;;;;483896;245;27419;-73
2021/04/21 03:34:03;;;;;;;20.70;14.30;;;4.10;99.90;;;;;;483852;245;27879;-72
2021/04/21 03:36:05;;;;;;;21.42;15.52;;;4.10;99.90;;;;;;483909;245;27888;-73
2021/04/21 03:38:06;;;;;;;18.05;14.15;;;4.10;99.90;;;;;;483902;245;27397;-73
2021/04/21 03:40:07;;;;;;;20.12;15.70;;;4.00;99.90;;;;;;483881;244;27406;-73
2021/04/21 03:42:08;;;;;;;19.80;13.73;;;4.00;99.90;;;;;;483931;246;27375;-73
2021/04/21 03:44:10;;;;;;;21.27;14.75;;;4.00;99.90;;;;;;483895;245;27403;-73
2021/04/21 03:46:11;;;;;;;18.52;14.07;;;4.00;99.90;;;;;;483926;245;27417;-73
2021/04/21 03:48:12;;;;;;;20.52;14.48;;;3.90;99.90;;;;;;483935;245;28007;-73
2021/04/21 03:50:13;;;;;;;22.52;15.90;;;4.00;99.90;;;;;;483909;245;27857;-73
2021/04/21 03:52:15;;;;;;;21.10;15.45;;;3.90;99.90;;;;;;476668;243;27391;-73
2021/04/21 03:54:16;;;;;;;22.90;15.90;;;3.90;99.90;;;;;;473843;248;27501;-73
2021/04/21 03:56:17;;;;;;;25.58;16.08;;;3.90;99.90;;;;;;473872;250;27510;-73
2021/04/21 03:58:18;;;;;;;20.15;14.48;;;3.90;99.90;;;;;;473852;250;27563;-73
2021/04/21 04:00:20;;;;;;;23.10;16.05;;;3.90;99.90;;;;;;473889;250;28001;-73
2021/04/21 04:02:21;;;;;;;19.10;14.70;;;3.90;99.90;;;;;;475520;247;29019;-74
2021/04/21 04:04:22;;;;;;;16.87;13.80;;;3.90;99.90;;;;;;485730;244;27492;-74
2021/04/21 04:06:24;;;;;;;18.27;14.32;;;3.90;99.90;;;;;;485710;244;27458;-74
2021/04/21 04:08:25;;;;;;;21.12;15.43;;;3.90;99.90;;;;;;485724;244;27464;-73
2021/04/21 04:10:26;;;;;;;17.67;12.23;;;3.90;99.90;;;;;;485651;244;27632;-73
2021/04/21 04:12:27;;;;;;;23.70;15.68;;;4.00;99.90;;;;;;485662;244;27981;-73
2021/04/21 04:14:29;;;;;;;19.58;14.40;;;4.00;99.90;;;;;;485694;244;27996;-73
2021/04/21 04:16:30;;;;;;;24.15;15.90;;;4.00;99.90;;;;;;485653;244;27607;-73
2021/04/21 04:18:31;;;;;;;20.50;14.38;;;3.90;99.90;;;;;;485649;244;27555;-73
2021/04/21 04:20:32;;;;;;;21.70;14.63;;;3.90;99.90;;;;;;485703;244;27487;-73
2021/04/21 04:22:34;;;;;;;18.52;14.20;;;3.90;99.90;;;;;;485644;244;27476;-73
2021/04/21 04:24:35;;;;;;;22.30;14.60;;;3.90;99.90;;;;;;485627;244;27499;-73
2021/04/21 04:26:36;;;;;;;21.52;14.75;;;3.90;99.90;;;;;;485640;244;28080;-73
2021/04/21 04:28:37;;;;;;;23.95;15.40;;;3.90;99.90;;;;;;485628;244;27478;-72
2021/04/21 04:30:39;;;;;;;22.17;14.80;;;3.90;99.90;;;;;;485628;244;27598;-73
2021/04/21 04:32:40;;;;;;;22.92;15.38;;;3.90;99.90;;;;;;485634;244;27492;-73
2021/04/21 04:34:41;;;;;;;21.85;14.60;;;3.90;99.90;;;;;;485385;244;27506;-73
2021/04/21 04:36:42;;;;;;;21.37;15.13;;;3.90;99.90;;;;;;485646;244;27490;-73
2021/04/21 04:38:44;;;;;;;22.85;15.15;;;3.90;99.90;;;;;;485623;244;27984;-73
2021/04/21 04:40:45;;;;;;;21.23;14.87;;;3.90;99.90;;;;;;485648;244;27500;-73
2021/04/21 04:42:46;;;;;;;23.95;16.65;;;3.90;99.90;;;;;;485625;244;27487;-73
2021/04/21 04:44:47;;;;;;;21.85;14.50;;;4.00;99.90;;;;;;485639;244;27587;-73
2021/04/21 04:46:51;;;;;;;23.90;16.12;;;4.00;99.90;;;;;;485653;244;27600;-73
2021/04/21 04:48:53;;;;;;;18.20;14.13;;;4.00;99.90;;;;;;485597;244;28036;-74
2021/04/21 04:51:00;;;;;;;20.65;14.50;;;4.00;99.90;;;;;;480706;243;27899;-73
2021/04/21 04:52:58;;;;;;;22.10;15.15;;;4.00;99.90;;;;;;470309;252;27410;-73
2021/04/21 04:54:59;;;;;;;21.50;15.45;;;4.00;99.90;;;;;;470327;252;27447;-73
2021/04/21 04:57:01;;;;;;;24.23;15.35;;;4.10;99.90;;;;;;470469;252;27417;-73
2021/04/21 04:59:02;;;;;;;21.85;15.45;;;4.00;99.90;;;;;;470458;250;27509;-73
2021/04/21 05:01:03;;;;;;;24.80;15.95;;;4.00;99.90;;;;;;470466;252;28857;-73
2021/04/21 05:03:04;;;;;;;20.40;15.00;;;4.00;99.90;;;;;;470528;252;28054;-73
2021/04/21 05:05:07;;;;;;;21.10;15.43;;;4.00;99.90;;;;;;470454;252;27437;-73
2021/04/21 05:07:07;;;;;;;21.37;15.25;;;4.00;99.90;;;;;;470500;252;27394;-74
2021/04/21 05:09:08;;;;;;;18.85;14.35;;;4.10;99.90;;;;;;470511;252;27421;-73
2021/04/21 05:11:09;;;;;;;20.02;14.00;;;4.10;99.90;;;;;;470524;252;27413;-74
2021/04/21 05:13:11;;;;;;;23.73;15.40;;;4.10;99.90;;;;;;470572;252;27873;-74
2021/04/21 05:15:12;;;;;;;19.80;14.48;;;4.20;99.90;;;;;;470480;252;27960;-73
2021/04/21 05:17:13;;;;;;;20.30;13.77;;;4.20;99.90;;;;;;470439;252;27521;-74
2021/04/21 05:19:15;;;;;;;21.60;14.02;;;4.20;99.90;;;;;;470506;252;27408;-74
2021/04/21 05:21:16;;;;;;;21.20;15.65;;;4.20;99.90;;;;;;470514;252;27440;-73
2021/04/21 05:23:17;;;;;;;20.15;14.20;;;4.30;99.90;;;;;;470497;252;27391;-74
2021/04/21 05:25:18;;;;;;;19.05;13.45;;;4.40;99.90;;;;;;470531;252;27876;-73
2021/04/21 05:27:20;;;;;;;20.35;13.90;;;4.40;99.90;;;;;;470496;252;27863;-74
2021/04/21 05:29:21;;;;;;;17.23;12.70;;;4.50;99.90;;;;;;470517;252;27398;-74
2021/04/21 05:31:22;;;;;;;21.52;13.85;;;4.50;99.90;;;;;;470498;252;27537;-74
2021/04/21 05:33:23;;;;;;;17.83;12.95;;;4.50;99.90;;;;;;470539;252;27440;-74
2021/04/21 05:35:25;;;;;;;18.12;12.30;;;4.50;99.90;;;;;;470524;252;27441;-73
2021/04/21 05:37:26;;;;;;;19.73;13.40;;;4.60;99.90;;;;;;470468;252;27929;-74
2021/04/21 05:39:27;;;;;;;20.42;13.88;;;4.60;99.90;;;;;;470464;252;27537;-74
2021/04/21 05:41:28;;;;;;;18.40;13.90;;;4.60;99.90;;;;;;470549;250;27450;-75
2021/04/21 05:43:30;;;;;;;16.77;13.20;;;4.60;99.90;;;;;;470530;252;27409;-74
2021/04/21 05:45:31;;;;;;;17.23;12.90;;;4.60;99.90;;;;;;470536;252;27437;-74
2021/04/21 05:47:32;;;;;;;15.25;11.85;;;4.70;99.90;;;;;;470581;252;27486;-73
2021/04/21 05:49:33;;;;;;;15.65;12.45;;;4.80;99.90;;;;;;470529;252;27951;-74
2021/04/21 05:51:35;;;;;;;17.52;12.93;;;4.80;99.90;;;;;;470479;250;27513;-73
2021/04/21 05:53:36;;;;;;;18.87;13.60;;;4.90;99.90;;;;;;479841;248;27510;-74
2021/04/21 05:55:37;;;;;;;20.40;13.38;;;5.00;99.90;;;;;;479842;248;27539;-74
2021/04/21 05:57:38;;;;;;;17.87;13.02;;;5.10;99.90;;;;;;479934;248;27609;-75
2021/04/21 05:59:40;;;;;;;18.85;13.35;;;5.10;99.90;;;;;;479903;248;27966;-74
2021/04/21 06:01:41;;;;;;;16.10;10.82;;;5.20;99.90;;;;;;479875;248;27539;-73
2021/04/21 06:03:42;;;;;;;21.87;13.13;;;5.20;99.90;;;;;;479885;248;27487;-74
2021/04/21 06:05:44;;;;;;;17.23;12.43;;;5.30;99.90;;;;;;479819;248;27536;-74
2021/04/21 06:07:45;;;;;;;18.00;12.75;;;5.40;99.90;;;;;;479863;248;27595;-74
2021/04/21 06:09:46;;;;;;;20.50;12.85;;;5.50;99.90;;;;;;479825;248;28081;-74
2021/04/21 06:11:47;;;;;;;16.87;12.45;;;5.60;99.90;;;;;;479833;247;27566;-74
2021/04/21 06:13:49;;;;;;;19.12;13.73;;;5.80;99.90;;;;;;479231;247;27536;-73
2021/04/21 06:15:50;;;;;;;18.55;13.18;;;5.90;99.90;;;;;;479249;247;27555;-73
2021/04/21 06:17:51;;;;;;;18.77;13.45;;;6.00;99.90;;;;;;479218;247;27496;-73
2021/04/21 06:19:53;;;;;;;19.17;13.15;;;6.00;99.90;;;;;;479253;247;27952;-74
2021/04/21 06:21:54;;;;;;;16.33;12.68;;;6.10;99.90;;;;;;479281;247;27547;-73
2021/04/21 06:23:55;;;;;;;17.70;13.32;;;6.20;99.90;;;;;;479317;247;27576;-74
2021/04/21 06:25:56;;;;;;;18.30;13.88;;;6.20;99.90;;;;;;479233;247;27643;-74
2021/04/21 06:27:57;;;;;;;18.90;14.67;;;6.30;99.90;;;;;;479262;247;27496;-73
2021/04/21 06:29:59;;;;;;;20.23;14.30;;;6.30;99.90;;;;;;479250;247;29428;-73
2021/04/21 06:32:00;;;;;;;19.80;13.17;;;6.40;99.90;;;;;;479230;247;29364;-73
2021/04/21 06:34:01;;;;;;;19.23;14.00;;;6.50;99.90;;;;;;479243;247;28061;-74
2021/04/21 06:36:02;;;;;;;16.00;11.93;;;6.60;99.90;;;;;;479247;247;28888;-72
2021/04/21 06:38:04;;;;;;;18.97;13.63;;;6.60;99.90;;;;;;479259;247;28244;-72
2021/04/21 06:40:05;;;;;;;16.53;12.10;;;6.70;99.90;;;;;;479247;247;28752;-72
2021/04/21 06:42:06;;;;;;;19.40;13.67;;;6.80;99.90;;;;;;479280;248;28866;-72
2021/04/21 06:44:07;;;;;;;14.87;11.50;;;6.90;99.90;;;;;;479301;247;28168;-72
2021/04/21 06:46:10;;;;;;;17.60;13.03;;;7.00;99.90;;;;;;479191;247;28469;-74
2021/04/21 06:48:11;;;;;;;17.53;13.60;;;7.10;99.90;;;;;;479226;247;29043;-72
2021/04/21 06:50:11;;;;;;;17.43;11.90;;;7.10;99.90;;;;;;479218;247;28496;-72
2021/04/21 06:52:13;;;;;;;16.13;11.13;;;7.20;99.90;;;;;;479264;247;28107;-72
2021/04/21 06:54:14;;;;;;;18.40;12.50;;;7.30;99.90;;;;;;479282;247;27850;-74
2021/04/21 06:56:15;;;;;;;18.17;12.10;;;7.40;99.90;;;;;;479299;247;27996;-72
2021/04/21 06:58:16;;;;;;;17.30;12.37;;;7.50;99.90;;;;;;479318;247;28061;-73
2021/04/21 07:00:18;;;;;;;17.87;12.50;;;7.60;99.90;;;;;;479245;247;28154;-73
2021/04/21 07:02:19;;;;;;;16.17;11.87;;;7.70;99.90;;;;;;479291;247;28079;-74
2021/04/21 07:04:20;;;;;;;20.13;12.10;;;7.80;99.90;;;;;;479311;247;28397;-72
2021/04/21 07:06:21;;;;;;;20.87;12.27;;;7.90;99.90;;;;;;479253;247;28349;-72
2021/04/21 07:08:23;;;;;;;15.97;12.67;;;8.00;99.90;;;;;;479344;247;28378;-73
2021/04/21 07:10:24;;;;;;;15.20;11.37;;;8.20;99.90;;;;;;479303;247;27880;-73
2021/04/21 07:12:25;;;;;;;16.93;12.43;;;8.30;99.90;;;;;;479369;247;28017;-74
2021/04/21 07:14:26;;;;;;;17.03;12.60;;;8.40;99.90;;;;;;479338;247;27992;-73
2021/04/21 07:16:28;;;;;;;15.40;11.77;;;8.50;99.90;;;;;;479359;247;27914;-73
2021/04/21 07:18:29;;;;;;;13.70;11.73;;;8.60;99.90;;;;;;479387;247;27968;-72
2021/04/21 07:20:30;;;;;;;18.40;12.53;;;8.70;99.90;;;;;;479374;247;27971;-72
2021/04/21 07:22:31;;;;;;;17.60;12.70;;;8.80;99.90;;;;;;479400;247;28352;-73
2021/04/21 07:24:33;;;;;;;14.00;10.40;;;8.90;99.90;;;;;;479407;247;28421;-73
2021/04/21 07:26:35;;;;;;;11.07;8.83;;;9.00;99.90;;;;;;479362;247;28039;-72
2021/04/21 07:28:35;;;;;;;12.47;9.13;;;9.10;99.90;;;;;;479289;248;28017;-73
2021/04/21 07:30:37;;;;;;;11.47;8.97;;;9.10;99.90;;;;;;479296;247;28019;-72
2021/04/21 07:32:38;;;;;;;12.63;8.90;;;9.20;99.90;;;;;;479325;247;27968;-73
2021/04/21 07:34:39;;;;;;;12.80;9.80;;;9.30;99.90;;;;;;479315;247;28031;-73
2021/04/21 07:36:40;;;;;;;10.80;8.53;;;9.40;99.90;;;;;;479316;247;28380;-73
2021/04/21 07:38:41;;;;;;;12.60;9.13;;;9.50;99.90;;;;;;479320;247;28534;-72
2021/04/21 07:40:43;;;;;;;13.40;9.63;;;9.50;99.90;;;;;;479169;247;28462;-73
2021/04/21 07:42:44;;;;;;;14.97;8.97;;;9.60;99.90;;;;;;479065;247;28020;-74
2021/04/21 07:44:52;;;;;;;12.73;8.60;;;9.80;99.90;;;;;;479083;247;27877;-73
2021/04/21 07:46:53;;;;;;;8.73;7.77;;;9.80;99.90;;;;;;479361;247;27867;-73
2021/04/21 07:48:54;;;;;;;9.93;8.37;;;10.00;99.90;;;;;;479390;247;28000;-72
2021/04/21 07:50:55;;;;;;;10.90;8.90;;;10.10;99.90;;;;;;479460;247;27973;-73
2021/04/21 07:52:56;;;;;;;15.87;10.67;;;10.20;99.90;;;;;;479420;247;27971;-74
2021/04/21 07:54:58;;;;;;;10.77;8.17;;;10.30;99.90;;;;;;479362;248;28067;-73
2021/04/21 07:56:59;;;;;;;12.63;8.60;;;10.40;99.90;;;;;;479333;247;28074;-73
2021/04/21 07:59:00;;;;;;;12.10;8.90;;;10.50;99.90;;;;;;479316;247;29215;-72
2021/04/21 08:01:01;;;;;;;11.17;7.57;;;10.50;99.90;;;;;;479350;247;28546;-73
2021/04/21 08:03:03;;;;;;;13.40;7.50;;;10.60;99.90;;;;;;479396;247;28184;-73
2021/04/21 08:05:04;;;;;;;11.83;7.77;;;10.90;99.90;;;;;;479359;247;27905;-74
2021/04/21 08:07:05;;;;;;;12.40;8.30;;;11.10;99.90;;;;;;479401;247;28019;-73
2021/04/21 08:09:06;;;;;;;14.53;8.00;;;11.10;99.90;;;;;;479375;248;28113;-72
2021/04/21 08:11:08;;;;;;;14.10;8.80;;;11.20;99.90;;;;;;479384;247;28070;-73
2021/04/21 08:13:10;;;;;;;11.90;7.53;;;11.40;99.90;;;;;;479400;247;28134;-73
2021/04/21 08:15:10;;;;;;;13.70;8.70;;;11.30;99.90;;;;;;479284;247;28671;-73
2021/04/21 08:17:11;;;;;;;15.23;10.13;;;11.40;99.90;;;;;;479325;247;28703;-71
2021/04/21 08:19:13;;;;;;;17.60;11.47;;;11.70;99.90;;;;;;479293;248;28750;-72
2021/04/21 08:21:14;;;;;;;19.80;10.57;;;11.80;99.90;;;;;;479303;248;28253;-73
2021/04/21 08:23:15;;;;;;;13.70;9.43;;;11.70;99.90;;;;;;479415;248;28358;-73
2021/04/21 08:25:16;;;;;;;15.80;9.90;;;11.60;99.90;;;;;;479421;247;28439;-72
2021/04/21 08:27:18;;;;;;;20.30;13.87;;;11.70;99.90;;;;;;479438;247;28331;-72
2021/04/21 08:29:19;;;;;;;20.30;13.17;;;11.90;99.90;;;;;;479417;248;28450;-73
2021/04/21 08:31:20;;;;;;;16.80;11.50;;;11.80;99.90;;;;;;479295;248;29413;-72
2021/04/21 08:33:21;;;;;;;19.03;10.83;;;11.70;99.90;;;;;;477081;245;28754;-72
2021/04/21 08:35:23;;;;;;;15.50;10.50;;;11.70;99.90;;;;;;479723;245;27949;-72
2021/04/21 08:37:24;;;;;;;20.90;11.80;;;11.90;99.90;;;;;;481442;247;28443;-72
2021/04/21 08:39:25;;;;;;;23.03;12.70;;;12.00;99.90;;;;;;481402;247;28412;-73
2021/04/21 08:41:26;;;;;;;18.17;12.47;;;12.40;99.90;;;;;;481409;247;28262;-71
2021/04/21 08:43:28;;;;;;;16.60;12.20;;;12.40;99.90;;;;;;481432;247;28345;-74
2021/04/21 08:45:29;;;;;;;15.87;11.60;;;12.60;99.90;;;;;;481449;247;28878;-70
2021/04/21 08:47:30;;;;;;;15.60;12.03;;;12.70;99.90;;;;;;481351;247;29306;-70
2021/04/21 08:49:31;;;;;;;16.57;11.77;;;12.70;99.90;;;;;;481313;247;28035;-70
2021/04/21 08:51:33;;;;;;;17.93;12.83;;;12.50;99.90;;;;;;481353;247;28241;-70
2021/04/21 08:53:34;;;;;;;14.50;10.10;;;12.40;99.90;;;;;;481343;247;28021;-70
2021/04/21 08:55:35;;;;;;;16.97;11.97;;;12.30;99.90;;;;;;481306;247;28602;-70
2021/04/21 08:57:37;;;;;;;14.80;10.50;;;12.30;99.90;;;;;;481327;247;28440;-70
2021/04/21 08:59:38;;;;;;;15.07;10.20;;;12.60;99.90;;;;;;481305;247;29304;-74
2021/04/21 09:01:39;;;;;;;15.00;10.70;;;12.70;99.90;;;;;;481314;247;28806;-70
2021/04/21 09:03:40;;;;;;;17.03;11.57;;;12.70;99.90;;;;;;481331;247;28759;-71
2021/04/21 09:05:42;;;;;;;17.80;11.63;;;12.90;99.90;;;;;;481281;246;28492;-71
2021/04/21 09:07:43;;;;;;;12.40;9.00;;;13.00;99.90;;;;;;481324;247;28434;-70
2021/04/21 09:09:44;;;;;;;10.90;8.30;;;12.90;99.90;;;;;;481302;247;28889;-70
2021/04/21 09:11:45;;;;;;;14.10;9.87;;;12.80;99.90;;;;;;481314;247;28523;-70
2021/04/21 09:13:48;;;;;;;12.50;9.60;;;;;;;;;;481343;247;28242;-70
2021/04/21 09:15:49;;;;;;;12.57;9.70;;;12.60;99.90;;;;;;481348;246;26925;-70
2021/04/21 09:17:52;;;;;;;10.80;8.37;;;;;;;;;;481310;247;28503;-70
2021/04/21 09:19:53;;;;;;;12.93;8.53;;;12.50;99.90;;;;;;481323;246;27311;-71
2021/04/21 09:21:54;;;;;;;12.60;7.80;;;12.50;99.90;;;;;;481312;247;28165;-70
2021/04/21 09:23:55;;;;;;;9.70;7.67;;;12.40;99.90;;;;;;481322;247;28340;-70
2021/04/21 09:25:56;;;;;;;9.70;7.67;;;12.80;99.90;;;;;;481320;247;28215;-70
2021/04/21 09:27:58;;;;;;;10.03;8.07;;;13.20;99.90;;;;;;481314;247;28268;-70
2021/04/21 09:29:59;;;;;;;9.97;7.30;;;13.50;99.90;;;;;;481309;247;29043;-71
2021/04/21 09:32:00;;;;;;;11.83;7.53;;;13.50;99.90;;;;;;481288;247;28329;-70
2021/04/21 09:34:01;;;;;;;10.40;6.80;;;13.50;99.90;;;;;;481329;247;28288;-70
2021/04/21 09:36:03;;;;;;;9.87;6.43;;;13.70;99.90;;;;;;481304;247;28762;-70
2021/04/21 09:38:04;;;;;;;7.70;6.33;;;13.60;99.90;;;;;;481306;247;28720;-69
2021/04/21 09:40:05;;;;;;;9.50;6.77;;;13.30;99.90;;;;;;481301;247;28238;-73
2021/04/21 09:42:08;;;;;;;11.00;7.30;;;13.50;99.90;;;;;;481325;247;28193;-70
2021/04/21 09:44:08;;;;;;;10.13;7.93;;;13.80;99.90;;;;;;481303;247;28665;-71
2021/04/21 09:46:09;;;;;;;8.80;6.93;;;13.80;99.90;;;;;;481293;247;29003;-70
2021/04/21 09:48:10;;;;;;;12.93;7.30;;;13.60;99.90;;;;;;481309;247;28156;-70
2021/04/21 09:50:12;;;;;;;7.43;6.10;;;13.60;99.90;;;;;;481323;247;28241;-70
2021/04/21 09:52:13;;;;;;;9.10;6.80;;;13.70;99.90;;;;;;481332;247;28118;-70
2021/04/21 09:54:14;;;;;;;8.07;6.57;;;13.80;99.90;;;;;;481314;247;28202;-71
2021/04/21 09:56:15;;;;;;;8.00;6.67;;;13.80;99.90;;;;;;481343;247;28209;-71
2021/04/21 09:58:17;;;;;;;6.40;5.33;;;13.80;99.90;;;;;;481375;247;28252;-71
2021/04/21 10:00:18;;;;;;;12.40;6.60;;;13.70;99.90;;;;;;481346;247;28235;-71
2021/04/21 10:02:19;;;;;;;8.40;6.03;;;13.70;99.90;;;;;;481375;247;28302;-71
2021/04/21 10:04:27;;;;;;;8.40;6.80;;;14.00;99.90;;;;;;481370;247;28620;-71
2021/04/21 10:06:28;;;;;;;8.63;6.47;;;14.00;99.90;;;;;;481366;247;28554;-71
2021/04/21 10:08:29;;;;;;;9.47;7.07;;;14.00;99.90;;;;;;481321;247;28700;-71
2021/04/21 10:10:30;;;;;;;8.50;6.47;;;14.00;99.90;;;;;;481363;247;28220;-71
2021/04/21 10:12:33;;;;;;;7.43;6.17;;;14.00;99.90;;;;;;481299;247;28374;-70
2021/04/21 10:14:33;;;;;;;8.40;6.60;;;14.00;99.90;;;;;;481310;246;28312;-71
2021/04/21 10:16:34;;;;;;;8.07;6.30;;;14.00;99.90;;;;;;481326;247;28756;-71
2021/04/21 10:18:35;;;;;;;6.93;5.30;;;13.90;99.90;;;;;;481342;247;28421;-71
2021/04/21 10:20:37;;;;;;;5.90;4.90;;;13.90;99.90;;;;;;481354;247;28424;-71
2021/04/21 10:22:38;;;;;;;6.43;5.53;;;13.80;99.90;;;;;;481318;247;28305;-71
2021/04/21 10:24:39;;;;;;;8.70;5.10;;;13.90;99.90;;;;;;481306;247;28784;-71